Time;durP1;ratioP1;P1;durP2;ratioP2;P2;SDS_P1;SDS_P2;PMS_P1;PMS_P2;Temp;Humidity;BMP_temperature;BMP_pressure;BME280_temperature;BME280_humidity;BME280_pressure;Samples;Min_cycle;Max_cycle;Signal;HPM_P1;HPM_P2
2020/12/04 00:02:54;;;;;;;14.73;12.20;;;5.50;91.40;;;;;;10580696;28;20687;-84
2020/12/04 00:07:55;;;;;;;16.40;13.00;;;5.50;91.60;;;;;;10582702;28;20215;-82
2020/12/04 00:12:57;;;;;;;12.47;10.40;;;5.50;91.40;;;;;;10587943;27;20199;-84
2020/12/04 00:18:00;;;;;;;15.60;12.70;;;5.40;91.10;;;;;;10581667;28;20207;-82
2020/12/04 00:23:02;;;;;;;14.90;12.27;;;5.40;91.30;;;;;;10587471;28;20211;-84
2020/12/04 00:28:03;;;;;;;13.87;12.43;;;5.50;91.40;;;;;;10587574;28;20221;-83
2020/12/04 00:33:06;;;;;;;13.03;11.50;;;5.50;91.70;;;;;;10558788;27;20217;-83
2020/12/04 00:38:07;;;;;;;14.03;11.00;;;5.50;91.20;;;;;;10571158;28;20230;-78
2020/12/04 00:43:09;;;;;;;14.27;11.70;;;5.50;90.90;;;;;;10574278;28;20207;-83
2020/12/04 00:48:11;;;;;;;13.90;12.20;;;5.50;90.80;;;;;;10588706;28;20572;-81
2020/12/04 00:53:13;;;;;;;13.47;11.43;;;5.50;91.40;;;;;;10551701;28;20205;-82
2020/12/04 00:58:18;;;;;;;14.30;11.60;;;5.50;91.10;;;;;;10587189;28;20211;-81
2020/12/04 01:03:21;;;;;;;13.40;11.73;;;5.40;90.70;;;;;;10587801;27;20929;-81
2020/12/04 01:08:23;;;;;;;14.13;11.83;;;5.40;90.80;;;;;;10564759;28;20441;-82
2020/12/04 01:13:24;;;;;;;14.50;12.90;;;5.40;88.90;;;;;;10574691;28;20218;-79
2020/12/04 01:18:27;;;;;;;15.63;12.83;;;5.30;90.50;;;;;;10527352;28;20224;-83
2020/12/04 01:23:28;;;;;;;15.70;12.90;;;5.20;90.40;;;;;;10583726;28;20207;-82
2020/12/04 01:28:30;;;;;;;15.63;13.00;;;5.20;89.70;;;;;;10565209;28;20234;-82
2020/12/04 01:33:32;;;;;;;12.90;11.50;;;5.20;90.70;;;;;;10542942;28;20196;-83
2020/12/04 01:38:34;;;;;;;15.50;13.27;;;5.10;90.50;;;;;;10565769;28;20283;-80
2020/12/04 01:43:36;;;;;;;15.60;12.53;;;5.20;91.10;;;;;;10582496;28;20215;-82
2020/12/04 01:48:38;;;;;;;13.00;11.40;;;5.30;90.50;;;;;;10548022;28;20290;-82
2020/12/04 01:53:44;;;;;;;15.27;12.77;;;5.30;91.20;;;;;;10570455;28;20303;-81
2020/12/04 01:58:46;;;;;;;13.10;11.80;;;5.30;91.00;;;;;;10566408;28;20220;-83
2020/12/04 02:03:48;;;;;;;14.83;12.97;;;5.40;91.30;;;;;;10577769;28;20207;-81
2020/12/04 02:08:56;;;;;;;12.73;11.43;;;5.40;90.70;;;;;;10580430;28;20698;-82
2020/12/04 02:13:59;;;;;;;13.13;11.60;;;5.40;90.30;;;;;;10551168;28;20548;-80
2020/12/04 02:19:01;;;;;;;14.20;11.80;;;5.40;90.60;;;;;;10567826;28;20218;-82
2020/12/04 02:24:05;;;;;;;14.60;13.10;;;5.40;90.10;;;;;;10549551;28;20229;-83
2020/12/04 02:29:09;;;;;;;14.13;11.87;;;5.40;90.50;;;;;;10559006;28;20656;-80
2020/12/04 02:34:11;;;;;;;14.03;12.17;;;5.40;90.20;;;;;;10564858;28;20227;-82
2020/12/04 02:39:14;;;;;;;13.60;12.13;;;5.40;90.50;;;;;;10591531;28;20656;-82
2020/12/04 02:44:16;;;;;;;14.50;11.97;;;5.40;90.60;;;;;;10592968;28;20265;-81
2020/12/04 02:49:20;;;;;;;11.77;10.57;;;5.40;90.40;;;;;;10589457;28;20215;-81
2020/12/04 02:54:23;;;;;;;13.00;11.17;;;5.40;91.00;;;;;;10570763;28;20203;-81
2020/12/04 02:59:24;;;;;;;13.20;11.33;;;5.30;91.30;;;;;;10568463;28;20245;-82
2020/12/04 03:04:26;;;;;;;15.50;12.00;;;5.20;91.50;;;;;;10571477;28;20217;-81
2020/12/04 03:09:28;;;;;;;14.80;13.20;;;5.20;91.60;;;;;;10554764;28;20227;-82
2020/12/04 03:14:30;;;;;;;13.23;11.20;;;5.10;91.80;;;;;;10549058;28;20206;-81
2020/12/04 03:19:31;;;;;;;12.50;11.20;;;5.10;92.00;;;;;;10572352;28;20218;-81
2020/12/04 03:24:35;;;;;;;12.40;11.00;;;5.10;92.00;;;;;;10588767;28;20276;-85
2020/12/04 03:29:36;;;;;;;14.17;11.50;;;5.10;92.10;;;;;;10588329;28;20196;-82
2020/12/04 03:34:38;;;;;;;14.07;12.17;;;5.00;92.30;;;;;;10585980;28;20199;-83
2020/12/04 03:39:40;;;;;;;13.30;11.90;;;5.00;92.30;;;;;;10589033;27;20191;-83
2020/12/04 03:44:42;;;;;;;12.80;10.90;;;5.10;92.20;;;;;;10595922;28;20630;-80
2020/12/04 03:49:44;;;;;;;15.27;12.90;;;5.10;92.20;;;;;;10585487;28;20221;-82
2020/12/04 03:54:46;;;;;;;15.47;13.00;;;5.00;92.30;;;;;;10566806;28;20282;-81
2020/12/04 03:59:48;;;;;;;15.77;13.57;;;4.90;92.50;;;;;;10585510;28;20179;-80
2020/12/04 04:04:50;;;;;;;16.43;13.93;;;5.00;92.30;;;;;;10601980;28;20211;-83
2020/12/04 04:09:52;;;;;;;15.00;12.87;;;5.10;91.80;;;;;;10603566;28;20203;-81
2020/12/04 04:14:54;;;;;;;13.90;12.43;;;5.10;91.90;;;;;;10600093;28;20260;-83
2020/12/04 04:19:55;;;;;;;14.57;12.10;;;5.10;91.90;;;;;;10591109;27;20195;-82
2020/12/04 04:24:58;;;;;;;13.73;12.30;;;5.10;92.10;;;;;;10601968;28;20223;-80
2020/12/04 04:30:00;;;;;;;15.10;12.83;;;5.10;92.10;;;;;;10567411;28;20238;-81
2020/12/04 04:35:01;;;;;;;15.50;13.60;;;5.00;92.10;;;;;;10566049;28;20215;-80
2020/12/04 04:40:05;;;;;;;13.73;12.23;;;5.00;92.00;;;;;;10584602;28;20199;-82
2020/12/04 04:45:06;;;;;;;14.50;11.77;;;5.00;92.30;;;;;;10585549;28;20235;-82
2020/12/04 04:50:08;;;;;;;13.70;11.50;;;5.10;91.80;;;;;;10591088;28;20215;-82
2020/12/04 04:55:10;;;;;;;13.77;12.20;;;5.10;92.30;;;;;;10585093;28;20226;-80
2020/12/04 05:00:12;;;;;;;12.60;11.23;;;5.20;91.90;;;;;;10581060;28;20615;-79
2020/12/04 05:05:14;;;;;;;14.37;11.80;;;5.30;91.70;;;;;;10578581;28;20219;-83
2020/12/04 05:10:20;;;;;;;14.37;12.07;;;5.30;92.10;;;;;;10566591;28;20199;-81
2020/12/04 05:15:23;;;;;;;13.63;11.40;;;5.40;92.10;;;;;;10585068;28;20207;-80
2020/12/04 05:20:24;;;;;;;13.33;11.80;;;5.30;91.70;;;;;;10583241;28;20226;-80
2020/12/04 05:25:27;;;;;;;13.90;12.13;;;5.30;92.70;;;;;;10582873;28;20223;-83
2020/12/04 05:30:29;;;;;;;13.53;11.17;;;5.40;92.60;;;;;;10570001;28;20203;-81
2020/12/04 05:35:30;;;;;;;12.03;10.20;;;5.50;92.30;;;;;;10580045;28;20227;-82
2020/12/04 05:40:33;;;;;;;14.17;11.50;;;5.50;91.50;;;;;;10565603;28;20202;-82
2020/12/04 05:45:35;;;;;;;9.40;8.00;;;5.50;91.90;;;;;;10581781;28;20558;-80
2020/12/04 05:50:37;;;;;;;11.07;9.73;;;5.40;91.80;;;;;;10563017;28;20203;-81
2020/12/04 05:55:43;;;;;;;10.40;9.40;;;5.30;92.20;;;;;;10565043;28;20211;-81
2020/12/04 06:00:46;;;;;;;10.27;9.17;;;5.40;91.90;;;;;;10574219;28;20222;-82
2020/12/04 06:05:48;;;;;;;10.30;8.70;;;5.40;91.80;;;;;;10563039;28;20223;-82
2020/12/04 06:10:53;;;;;;;12.50;10.50;;;5.50;91.80;;;;;;10565717;28;20195;-79
2020/12/04 06:16:11;;;;;;;11.73;9.80;;;5.50;91.20;;;;;;10576646;28;20215;-82
2020/12/04 06:21:13;;;;;;;12.33;9.73;;;5.60;91.40;;;;;;10581559;28;20195;-80
2020/12/04 06:26:16;;;;;;;11.50;10.27;;;5.60;92.20;;;;;;10572955;28;20678;-82
2020/12/04 06:31:17;;;;;;;10.77;9.57;;;5.60;90.90;;;;;;10568667;28;20285;-78
2020/12/04 06:36:34;;;;;;;11.97;9.63;;;5.60;90.80;;;;;;10586014;28;20311;-79
2020/12/04 06:41:44;;;;;;;10.20;8.87;;;5.70;91.20;;;;;;10583926;28;20230;-78
2020/12/04 06:46:47;;;;;;;9.20;8.27;;;5.70;90.40;;;;;;10577189;28;20250;-80
2020/12/04 06:52:00;;;;;;;11.43;9.90;;;5.70;90.10;;;;;;10584526;28;20200;-79
2020/12/04 06:57:03;;;;;;;13.50;10.93;;;5.70;89.30;;;;;;10577385;28;20286;-79
2020/12/04 07:02:10;;;;;;;10.53;9.43;;;5.70;88.70;;;;;;10580991;28;20191;-80
2020/12/04 07:07:14;;;;;;;12.03;9.83;;;5.70;88.60;;;;;;10576985;28;20713;-78
2020/12/04 07:12:17;;;;;;;13.10;10.60;;;5.70;88.70;;;;;;10594609;28;20192;-79
2020/12/04 07:17:21;;;;;;;12.70;9.80;;;5.70;88.90;;;;;;10595233;28;20221;-79
2020/12/04 07:22:24;;;;;;;11.57;10.03;;;5.80;89.70;;;;;;10596533;28;20190;-79
2020/12/04 07:27:28;;;;;;;13.73;10.10;;;5.80;90.10;;;;;;10592338;28;20747;-79
2020/12/04 07:32:30;;;;;;;13.30;10.27;;;5.90;90.00;;;;;;10597150;28;20198;-79
2020/12/04 07:37:32;;;;;;;12.23;10.00;;;6.00;90.50;;;;;;10597919;27;20219;-79
2020/12/04 07:42:34;;;;;;;11.03;9.60;;;6.00;89.40;;;;;;10614759;27;20281;-79
2020/12/04 07:47:41;;;;;;;9.50;7.80;;;6.00;89.40;;;;;;10571954;27;20739;-79
2020/12/04 07:52:53;;;;;;;13.30;10.80;;;6.10;87.20;;;;;;10579765;28;20207;-79
2020/12/04 07:58:01;;;;;;;11.73;10.20;;;6.00;87.70;;;;;;10595044;28;20281;-79
2020/12/04 08:03:03;;;;;;;11.13;10.03;;;6.00;88.60;;;;;;10599028;27;20567;-78
2020/12/04 08:08:05;;;;;;;13.67;11.83;;;6.00;90.10;;;;;;10594019;28;20234;-79
2020/12/04 08:13:09;;;;;;;21.27;13.00;;;6.10;89.90;;;;;;10570570;28;20191;-78
2020/12/04 08:18:11;;;;;;;16.23;10.50;;;6.10;88.60;;;;;;10564997;27;20301;-78
2020/12/04 08:23:20;;;;;;;14.13;11.53;;;6.10;90.00;;;;;;10598386;27;20207;-78
2020/12/04 08:28:23;;;;;;;15.03;13.33;;;6.20;89.00;;;;;;10574544;27;20219;-78
2020/12/04 08:33:24;;;;;;;19.37;14.17;;;6.20;89.90;;;;;;10593515;27;20194;-79
2020/12/04 08:38:26;;;;;;;19.17;12.57;;;6.20;90.00;;;;;;10595768;27;20230;-79
2020/12/04 08:43:29;;;;;;;15.30;11.30;;;6.30;90.10;;;;;;10592480;27;20213;-79
2020/12/04 08:48:37;;;;;;;17.40;13.50;;;6.30;88.60;;;;;;10591147;28;20682;-79
2020/12/04 08:53:40;;;;;;;15.83;12.37;;;6.30;90.10;;;;;;10584944;28;20195;-78
2020/12/04 08:58:42;;;;;;;14.17;11.30;;;6.40;90.40;;;;;;10588254;28;20215;-79
2020/12/04 09:03:44;;;;;;;15.03;12.30;;;6.50;90.30;;;;;;10584823;28;20271;-79
2020/12/04 09:08:45;;;;;;;16.30;11.33;;;6.70;90.10;;;;;;10587865;28;20592;-79
2020/12/04 09:13:48;;;;;;;14.27;11.57;;;6.90;90.00;;;;;;10569565;28;20201;-80
2020/12/04 09:18:49;;;;;;;15.63;11.63;;;7.00;90.20;;;;;;10585574;28;20264;-79
2020/12/04 09:23:51;;;;;;;14.17;11.30;;;7.00;88.30;;;;;;10584354;28;20252;-79
2020/12/04 09:28:54;;;;;;;14.13;11.47;;;7.10;88.30;;;;;;10564208;28;20315;-80
2020/12/04 09:33:56;;;;;;;13.70;11.20;;;7.20;88.70;;;;;;10541079;28;20192;-79
2020/12/04 09:38:58;;;;;;;13.90;10.63;;;7.20;89.20;;;;;;10542462;28;20291;-79
2020/12/04 09:44:00;;;;;;;11.57;9.80;;;7.30;89.00;;;;;;10556812;28;20208;-79
2020/12/04 09:49:02;;;;;;;11.90;10.10;;;7.40;86.40;;;;;;10544482;28;20216;-79
2020/12/04 09:54:04;;;;;;;12.97;10.93;;;7.40;86.10;;;;;;10544141;28;20251;-79
2020/12/04 09:59:07;;;;;;;12.90;10.50;;;7.40;84.60;;;;;;10578178;28;20219;-79
2020/12/04 10:04:09;;;;;;;15.80;11.23;;;7.40;84.00;;;;;;10587809;28;20730;-79
2020/12/04 10:09:10;;;;;;;12.60;10.10;;;7.40;84.20;;;;;;10576818;28;20244;-79
2020/12/04 10:14:14;;;;;;;13.40;10.77;;;7.40;86.50;;;;;;10586447;28;20224;-79
2020/12/04 10:19:17;;;;;;;12.77;10.07;;;7.50;87.60;;;;;;10579431;28;20211;-79
2020/12/04 10:24:19;;;;;;;12.07;10.10;;;7.50;84.70;;;;;;10569395;28;20215;-80
2020/12/04 10:29:22;;;;;;;10.97;9.77;;;7.50;84.40;;;;;;10583735;28;20230;-79
2020/12/04 10:34:24;;;;;;;16.93;12.20;;;7.40;86.00;;;;;;10577886;27;20211;-79
2020/12/04 10:39:26;;;;;;;13.10;11.17;;;7.40;87.00;;;;;;10585651;28;20641;-79
2020/12/04 10:44:28;;;;;;;14.37;11.00;;;7.40;87.10;;;;;;10589890;28;20725;-79
2020/12/04 10:49:30;;;;;;;12.43;10.30;;;7.40;86.50;;;;;;10586294;27;20214;-81
2020/12/04 10:54:31;;;;;;;12.53;10.93;;;7.50;85.50;;;;;;10586570;28;20195;-79
2020/12/04 10:59:34;;;;;;;15.17;11.13;;;7.50;87.00;;;;;;10564608;28;20306;-81
2020/12/04 11:09:55;;;;;;;12.57;9.40;;;7.60;85.80;;;;;;10583495;28;20191;-79
2020/12/04 11:14:58;;;;;;;14.63;10.97;;;7.70;86.10;;;;;;10588371;28;20191;-79
2020/12/04 11:19:59;;;;;;;12.90;10.00;;;7.60;85.10;;;;;;10590757;28;20644;-80
2020/12/04 11:25:02;;;;;;;12.40;9.90;;;7.60;85.40;;;;;;10571118;28;20245;-81
2020/12/04 11:30:04;;;;;;;13.23;9.73;;;7.60;86.60;;;;;;10589850;28;20225;-80
2020/12/04 11:35:07;;;;;;;12.60;10.00;;;7.60;86.30;;;;;;10584785;28;21021;-80
2020/12/04 11:40:11;;;;;;;13.03;10.63;;;7.70;84.70;;;;;;10565545;28;20199;-80
2020/12/04 11:45:15;;;;;;;15.90;12.27;;;7.70;85.70;;;;;;10577260;27;20649;-80
2020/12/04 11:50:18;;;;;;;16.57;12.07;;;7.70;86.50;;;;;;10582385;28;20211;-79
2020/12/04 11:55:19;;;;;;;18.40;12.60;;;7.70;86.10;;;;;;10585547;27;20650;-79
2020/12/04 12:00:22;;;;;;;17.70;13.40;;;7.70;86.40;;;;;;10583678;28;20283;-81
2020/12/04 12:05:23;;;;;;;17.00;14.10;;;7.60;84.50;;;;;;10585836;28;20283;-80
2020/12/04 12:10:25;;;;;;;18.77;15.27;;;7.60;84.30;;;;;;10582863;28;20187;-80
2020/12/04 12:15:27;;;;;;;14.57;12.37;;;7.50;85.10;;;;;;10587277;28;20274;-79
2020/12/04 12:20:29;;;;;;;15.53;12.60;;;7.40;84.70;;;;;;10576824;28;20207;-79
2020/12/04 12:25:31;;;;;;;13.67;11.03;;;7.40;85.40;;;;;;10574376;27;20219;-79
2020/12/04 12:30:34;;;;;;;13.60;11.17;;;7.40;86.10;;;;;;10576764;27;20698;-82
2020/12/04 12:35:35;;;;;;;13.50;10.53;;;7.40;85.20;;;;;;10583435;27;20230;-80
2020/12/04 12:40:37;;;;;;;18.13;10.50;;;7.50;87.20;;;;;;10576309;27;20256;-82
2020/12/04 12:45:40;;;;;;;14.87;10.97;;;7.50;87.40;;;;;;10555829;27;20225;-82
2020/12/04 12:50:41;;;;;;;11.30;9.90;;;7.60;88.00;;;;;;10577703;27;20244;-82
2020/12/04 12:55:43;;;;;;;12.90;10.40;;;7.60;87.90;;;;;;10583773;28;20211;-82
2020/12/04 13:00:45;;;;;;;14.20;10.50;;;7.60;85.90;;;;;;10582728;28;20195;-82
2020/12/04 13:05:56;;;;;;;11.70;10.43;;;7.60;88.00;;;;;;10583426;28;20690;-80
2020/12/04 13:10:58;;;;;;;13.17;10.03;;;7.60;88.10;;;;;;10582260;28;20699;-82
2020/12/04 13:16:00;;;;;;;12.47;10.50;;;7.60;88.30;;;;;;10562192;28;20215;-83
2020/12/04 13:21:02;;;;;;;14.73;10.07;;;7.70;87.90;;;;;;10565395;28;20191;-83
2020/12/04 13:26:04;;;;;;;11.87;10.57;;;7.70;88.20;;;;;;10578704;28;20223;-83
2020/12/04 13:31:07;;;;;;;14.33;10.80;;;7.70;88.20;;;;;;10576920;27;20223;-80
2020/12/04 13:36:08;;;;;;;11.53;9.80;;;7.60;88.70;;;;;;10578373;27;20219;-83
2020/12/04 13:41:10;;;;;;;12.73;10.30;;;7.60;88.00;;;;;;10574405;28;20199;-83
2020/12/04 13:46:13;;;;;;;11.20;10.00;;;7.60;87.30;;;;;;10575182;27;20576;-82
2020/12/04 13:51:15;;;;;;;14.60;9.60;;;7.60;89.20;;;;;;10562929;28;20289;-83
2020/12/04 13:56:17;;;;;;;10.67;9.57;;;7.60;88.60;;;;;;10585800;27;20239;-84
2020/12/04 14:01:20;;;;;;;11.50;9.90;;;7.60;88.40;;;;;;10589793;27;20199;-83
2020/12/04 14:06:22;;;;;;;15.83;9.87;;;7.60;88.50;;;;;;10586449;28;20219;-79
2020/12/04 14:11:26;;;;;;;10.77;9.63;;;7.50;89.60;;;;;;10577040;28;20229;-83
2020/12/04 14:16:29;;;;;;;11.87;9.80;;;7.60;89.60;;;;;;10582149;28;20256;-83
2020/12/04 14:21:30;;;;;;;11.50;9.47;;;7.50;90.30;;;;;;10582154;28;20187;-81
2020/12/04 14:26:32;;;;;;;13.20;9.70;;;7.60;90.20;;;;;;10564697;28;20222;-83
2020/12/04 14:31:35;;;;;;;17.60;9.17;;;7.50;89.80;;;;;;10574225;28;20222;-83
2020/12/04 14:36:36;;;;;;;11.20;8.93;;;7.50;90.00;;;;;;10577143;28;20710;-83
2020/12/04 14:41:40;;;;;;;11.67;9.60;;;7.50;90.00;;;;;;10583920;28;20240;-83
2020/12/04 14:46:43;;;;;;;13.40;10.17;;;7.50;90.40;;;;;;10578274;28;20221;-83
2020/12/04 14:51:45;;;;;;;8.90;7.80;;;7.50;90.00;;;;;;10588569;28;20201;-82
2020/12/04 14:56:47;;;;;;;12.30;10.90;;;7.40;89.70;;;;;;10574609;28;20219;-83
2020/12/04 15:01:50;;;;;;;13.20;10.30;;;7.40;90.50;;;;;;10573035;28;20216;-82
2020/12/04 15:06:52;;;;;;;13.63;10.17;;;7.40;90.90;;;;;;10567275;28;20219;-81
2020/12/04 15:11:54;;;;;;;15.60;10.23;;;7.40;90.70;;;;;;10561044;28;20192;-81
2020/12/04 15:16:56;;;;;;;11.47;9.50;;;7.30;90.80;;;;;;10579901;28;20210;-82
2020/12/04 15:21:58;;;;;;;14.60;10.07;;;7.30;90.50;;;;;;10562025;28;20195;-82
2020/12/04 15:27:00;;;;;;;14.17;10.53;;;7.30;90.60;;;;;;10584204;28;20598;-82
2020/12/04 15:32:03;;;;;;;12.40;11.10;;;7.20;90.70;;;;;;10591909;27;20199;-83
2020/12/04 15:37:05;;;;;;;9.30;7.97;;;7.20;91.30;;;;;;10585641;28;20223;-81
2020/12/04 15:42:08;;;;;;;13.13;11.00;;;7.20;90.90;;;;;;10568432;28;20290;-80
2020/12/04 15:47:10;;;;;;;11.10;10.00;;;7.20;90.90;;;;;;10585043;28;20775;-83
2020/12/04 15:52:12;;;;;;;12.77;10.80;;;7.20;91.10;;;;;;10568350;28;20228;-84
2020/12/04 15:57:14;;;;;;;11.33;10.13;;;7.20;91.10;;;;;;10588863;27;20215;-84
2020/12/04 16:02:16;;;;;;;11.20;9.97;;;7.20;90.50;;;;;;10611806;28;20187;-82
2020/12/04 16:07:18;;;;;;;13.03;10.90;;;7.20;91.00;;;;;;10608475;28;20219;-84
2020/12/04 16:12:20;;;;;;;11.13;9.93;;;7.20;91.30;;;;;;10571023;28;20651;-84
2020/12/04 16:17:22;;;;;;;13.57;10.87;;;7.10;91.20;;;;;;10589569;28;20207;-83
2020/12/04 16:22:24;;;;;;;13.43;11.60;;;7.00;91.80;;;;;;10588844;28;20222;-83
2020/12/04 16:27:26;;;;;;;12.40;10.73;;;7.00;91.60;;;;;;10570318;28;20223;-83
2020/12/04 16:32:28;;;;;;;15.47;11.80;;;7.00;91.20;;;;;;10589620;28;20215;-85
2020/12/04 16:37:30;;;;;;;11.73;10.50;;;7.00;91.40;;;;;;10592924;28;20210;-84
2020/12/04 16:42:35;;;;;;;11.40;10.20;;;7.00;91.30;;;;;;10589188;28;20198;-84
2020/12/04 16:47:38;;;;;;;12.13;10.40;;;7.00;91.60;;;;;;10590075;28;20215;-84
2020/12/04 16:52:40;;;;;;;13.70;10.60;;;6.90;91.90;;;;;;10571241;28;20766;-84
2020/12/04 16:57:41;;;;;;;13.70;10.83;;;6.90;91.90;;;;;;10559729;28;20302;-83
2020/12/04 17:02:44;;;;;;;14.67;11.27;;;6.90;91.20;;;;;;10527757;28;20199;-84
2020/12/04 17:07:46;;;;;;;15.43;13.60;;;6.80;92.10;;;;;;10545130;28;20245;-85
2020/12/04 17:12:50;;;;;;;13.70;12.30;;;6.80;91.90;;;;;;10527664;28;20196;-83
2020/12/04 17:17:53;;;;;;;15.97;12.53;;;6.80;92.20;;;;;;10528320;28;20216;-85
2020/12/04 17:22:54;;;;;;;16.83;13.20;;;6.70;92.40;;;;;;10529548;28;20196;-84
2020/12/04 17:27:56;;;;;;;18.43;14.60;;;6.70;92.30;;;;;;10548874;28;20223;-84
2020/12/04 17:32:59;;;;;;;18.17;15.80;;;6.70;92.30;;;;;;10545568;28;20194;-83
2020/12/04 17:38:01;;;;;;;17.30;13.90;;;6.70;92.60;;;;;;10546574;28;20223;-84
2020/12/04 17:43:03;;;;;;;15.27;13.37;;;6.70;92.70;;;;;;10531781;28;20192;-83
2020/12/04 17:48:06;;;;;;;13.97;12.23;;;6.70;93.10;;;;;;10543832;28;20610;-84
2020/12/04 17:53:07;;;;;;;19.50;15.10;;;6.70;92.90;;;;;;10544213;28;20195;-84
2020/12/04 17:58:09;;;;;;;15.43;13.20;;;6.70;93.00;;;;;;10545992;28;20635;-84
2020/12/04 18:03:12;;;;;;;17.60;14.50;;;6.70;92.90;;;;;;10562099;28;20253;-85
2020/12/04 18:08:13;;;;;;;18.10;13.27;;;6.70;92.90;;;;;;10525489;28;20254;-86
2020/12/04 18:13:15;;;;;;;18.80;14.83;;;6.70;92.60;;;;;;10525259;28;20195;-85
2020/12/04 18:18:17;;;;;;;17.70;12.63;;;6.60;92.50;;;;;;10542123;28;20227;-85
2020/12/04 18:23:21;;;;;;;21.37;17.93;;;6.60;92.70;;;;;;10541729;28;20191;-86
2020/12/04 18:28:23;;;;;;;19.20;15.40;;;6.60;92.80;;;;;;10560496;28;20260;-81
2020/12/04 18:33:26;;;;;;;23.70;15.97;;;6.50;93.10;;;;;;10589926;28;20215;-82
2020/12/04 18:38:27;;;;;;;20.13;15.40;;;6.50;92.90;;;;;;10589614;28;20222;-82
2020/12/04 18:43:29;;;;;;;17.50;13.67;;;6.50;93.20;;;;;;10592193;28;20191;-82
2020/12/04 18:48:32;;;;;;;21.10;16.00;;;6.40;93.20;;;;;;10591414;28;20215;-81
2020/12/04 18:53:36;;;;;;;19.63;15.17;;;6.30;93.30;;;;;;10590327;28;20207;-82
2020/12/04 18:58:38;;;;;;;21.07;18.50;;;6.30;93.70;;;;;;10586891;28;20219;-82
2020/12/04 19:03:40;;;;;;;23.30;18.47;;;6.20;93.50;;;;;;10594720;28;20176;-80
2020/12/04 19:08:42;;;;;;;21.83;17.47;;;6.20;94.00;;;;;;10595633;28;20238;-82
2020/12/04 19:13:44;;;;;;;19.20;16.03;;;6.20;94.10;;;;;;10596915;27;20540;-81
2020/12/04 19:18:46;;;;;;;20.50;17.13;;;6.20;93.70;;;;;;10596843;28;20203;-82
2020/12/04 19:23:48;;;;;;;19.97;16.33;;;6.10;93.60;;;;;;10594211;28;20190;-82
2020/12/04 19:28:50;;;;;;;40.30;26.27;;;6.00;93.70;;;;;;10559152;27;20223;-82
2020/12/04 19:33:52;;;;;;;29.57;21.60;;;6.00;93.90;;;;;;10555017;28;20206;-81
2020/12/04 19:38:54;;;;;;;18.10;15.43;;;5.90;94.00;;;;;;10553182;28;20698;-81
2020/12/04 19:43:55;;;;;;;18.13;16.23;;;5.90;93.90;;;;;;10556557;28;20176;-82
2020/12/04 19:48:58;;;;;;;21.20;17.53;;;5.80;94.00;;;;;;10555210;28;20223;-82
2020/12/04 19:54:00;;;;;;;20.87;16.03;;;5.70;93.90;;;;;;10548818;28;20194;-81
2020/12/04 19:59:02;;;;;;;29.87;21.00;;;5.60;94.10;;;;;;10546370;28;20630;-81
2020/12/04 20:04:05;;;;;;;29.03;23.07;;;5.60;94.10;;;;;;10549402;27;20196;-81
2020/12/04 20:09:06;;;;;;;19.50;15.93;;;5.50;94.30;;;;;;10532749;28;20696;-82
2020/12/04 20:14:08;;;;;;;18.07;16.13;;;5.50;94.40;;;;;;10546880;28;20196;-81
2020/12/04 20:19:11;;;;;;;19.40;16.17;;;5.40;94.70;;;;;;10548305;28;20687;-82
2020/12/04 20:24:12;;;;;;;20.40;17.53;;;5.30;94.50;;;;;;10547631;28;20227;-82
2020/12/04 20:29:14;;;;;;;21.30;18.07;;;5.30;94.70;;;;;;10550785;28;20239;-83
2020/12/04 20:34:16;;;;;;;23.13;18.57;;;5.20;94.80;;;;;;10575313;28;20210;-81
2020/12/04 20:39:18;;;;;;;24.40;20.20;;;5.10;95.00;;;;;;10573379;28;20303;-82
2020/12/04 20:44:20;;;;;;;25.20;18.60;;;5.10;95.10;;;;;;10547704;28;20212;-81
2020/12/04 20:49:25;;;;;;;22.50;20.10;;;5.10;95.10;;;;;;10545352;28;20243;-81
2020/12/04 20:54:27;;;;;;;24.50;21.00;;;5.10;95.20;;;;;;10553561;28;20175;-81
2020/12/04 20:59:28;;;;;;;29.90;20.60;;;5.00;95.30;;;;;;10550001;28;20325;-83
2020/12/04 21:04:32;;;;;;;25.83;22.97;;;5.00;95.70;;;;;;10547776;28;20782;-82
2020/12/04 21:09:34;;;;;;;26.83;22.27;;;5.00;95.40;;;;;;10571295;28;20876;-81
2020/12/04 21:14:36;;;;;;;24.97;21.00;;;5.00;95.50;;;;;;10589903;28;20180;-81
2020/12/04 21:19:39;;;;;;;25.37;22.57;;;5.00;95.70;;;;;;10585917;28;20582;-81
2020/12/04 21:24:41;;;;;;;27.13;22.50;;;5.00;95.40;;;;;;10582292;28;20576;-81
2020/12/04 21:29:43;;;;;;;25.27;20.73;;;5.00;95.70;;;;;;10586665;28;20610;-81
2020/12/04 21:34:46;;;;;;;32.80;24.57;;;5.00;95.70;;;;;;10569733;28;20207;-82
2020/12/04 21:39:47;;;;;;;26.73;23.07;;;5.00;95.70;;;;;;10555623;28;20544;-82
2020/12/04 21:44:50;;;;;;;30.40;24.00;;;5.00;95.80;;;;;;10546727;28;20278;-82
2020/12/04 21:49:53;;;;;;;25.30;21.77;;;5.00;96.00;;;;;;10545515;28;20186;-80
2020/12/04 21:54:55;;;;;;;26.20;21.67;;;5.10;95.90;;;;;;10548147;28;20187;-82
2020/12/04 21:59:56;;;;;;;26.87;21.90;;;5.10;95.90;;;;;;10586899;28;20188;-83
2020/12/04 22:04:59;;;;;;;29.90;23.40;;;5.10;95.90;;;;;;10586909;28;20266;-81
2020/12/04 22:10:01;;;;;;;28.30;22.13;;;5.20;95.70;;;;;;10589390;28;20210;-81
2020/12/04 22:15:03;;;;;;;30.30;24.30;;;5.30;96.00;;;;;;10584452;28;20211;-82
2020/12/04 22:20:06;;;;;;;29.50;23.13;;;5.30;96.00;;;;;;10588056;28;20256;-81
2020/12/04 22:25:08;;;;;;;28.40;23.53;;;5.40;95.70;;;;;;10586870;28;20260;-81
2020/12/04 22:30:09;;;;;;;30.93;25.23;;;5.50;95.60;;;;;;10568273;28;20206;-82
2020/12/04 22:35:12;;;;;;;29.40;23.70;;;5.50;95.10;;;;;;10589839;27;20218;-80
2020/12/04 22:40:14;;;;;;;29.73;22.47;;;5.60;94.80;;;;;;10637010;27;20205;-79
2020/12/04 22:45:15;;;;;;;29.50;23.67;;;5.60;94.70;;;;;;10638298;27;20246;-79
2020/12/04 22:50:18;;;;;;;29.60;23.80;;;5.70;94.70;;;;;;10638538;27;20178;-79
2020/12/04 22:55:19;;;;;;;32.33;24.57;;;5.70;94.50;;;;;;10637961;27;20210;-80
2020/12/04 23:00:21;;;;;;;31.60;23.27;;;5.70;94.40;;;;;;10639402;27;20233;-79
2020/12/04 23:05:23;;;;;;;32.27;23.43;;;5.80;94.40;;;;;;10636143;27;20238;-79
2020/12/04 23:10:25;;;;;;;31.53;25.27;;;5.80;94.00;;;;;;10637625;27;20554;-80
2020/12/04 23:15:27;;;;;;;29.43;23.70;;;5.80;94.00;;;;;;10637858;27;20266;-79
2020/12/04 23:20:29;;;;;;;28.50;21.30;;;5.80;94.00;;;;;;10619106;27;20210;-79
2020/12/04 23:25:31;;;;;;;28.20;23.03;;;5.90;93.50;;;;;;10636036;27;20597;-79
2020/12/04 23:30:33;;;;;;;27.70;22.20;;;5.90;93.70;;;;;;10634577;27;20218;-79
2020/12/04 23:35:35;;;;;;;31.50;22.67;;;5.90;93.40;;;;;;10634672;27;20206;-79
2020/12/04 23:40:37;;;;;;;27.03;20.80;;;5.90;93.20;;;;;;10615645;27;20219;-79
2020/12/04 23:45:39;;;;;;;29.47;22.20;;;5.90;93.20;;;;;;10612500;27;20263;-79
2020/12/04 23:50:41;;;;;;;27.53;21.53;;;5.90;93.40;;;;;;10634431;27;20218;-79
2020/12/04 23:55:43;;;;;;;25.30;20.87;;;6.00;93.60;;;;;;10634322;27;20232;-79
